createdAt,value
2019-04-22T00:00:51.422Z,11.57
2019-04-22T00:03:36.007Z,11.65
2019-04-22T00:06:24.200Z,11.68
2019-04-22T00:09:02.876Z,11.52
2019-04-22T00:11:46.679Z,11.65
2019-04-22T00:14:14.796Z,11.71
2019-04-22T00:22:07.729Z,11.98
2019-04-22T00:24:36.941Z,11.83
2019-04-22T00:27:26.150Z,11.94
2019-04-22T00:32:39.566Z,11.59
2019-04-22T00:35:15.202Z,11.41
2019-04-22T00:37:58.170Z,11.43
2019-04-22T00:40:38.373Z,11.43
2019-04-22T00:43:04.972Z,11.16
2019-04-22T00:45:44.686Z,11.09
2019-04-22T00:48:23.620Z,11.24
2019-04-22T00:53:36.080Z,11.12
2019-04-22T00:56:15.712Z,11.12
2019-04-22T00:58:46.818Z,11.21
2019-04-22T01:01:50.605Z,11.29
2019-04-22T01:06:41.614Z,11.26
2019-04-22T01:09:16.909Z,11.15
2019-04-22T01:11:54.225Z,11.02
2019-04-22T01:14:29.404Z,10.94
2019-04-22T01:17:00.051Z,10.76
2019-04-22T01:19:45.057Z,10.60
2019-04-22T01:22:19.070Z,10.64
2019-04-22T01:24:52.282Z,10.60
2019-04-22T01:27:20.635Z,10.53
2019-04-22T01:29:59.698Z,10.62
2019-04-22T01:32:30.335Z,10.64
2019-04-22T01:35:13.027Z,10.60
2019-04-22T01:37:48.479Z,10.70
2019-04-22T01:40:40.504Z,10.58
2019-04-22T01:45:48.007Z,10.67
2019-04-22T01:48:27.001Z,10.68
2019-04-22T01:50:54.889Z,10.62
2019-04-22T01:53:33.419Z,10.55
2019-04-22T01:56:14.021Z,10.61
2019-04-22T01:58:40.674Z,10.61
2019-04-22T02:01:28.610Z,10.57
2019-04-22T02:04:01.340Z,10.36
2019-04-22T02:06:39.157Z,10.42
2019-04-22T02:09:20.405Z,10.42
2019-04-22T02:12:02.988Z,10.39
2019-04-22T02:14:19.941Z,10.38
2019-04-22T02:16:56.174Z,10.50
2019-04-22T02:22:11.450Z,10.40
2019-04-22T02:27:37.611Z,10.37
2019-04-22T02:29:58.219Z,10.33
2019-04-22T02:35:25.847Z,10.26
2019-04-22T02:39:00.028Z,10.20
2019-04-22T02:41:26.351Z,10.20
2019-04-22T02:49:18.872Z,10.09
2019-04-22T02:52:14.977Z,10.07
2019-04-22T02:54:38.417Z,10.03
2019-04-22T02:57:19.433Z,9.88
2019-04-22T02:59:53.985Z,9.82
2019-04-22T03:02:21.439Z,9.72
2019-04-22T03:04:55.628Z,9.72
2019-04-22T03:12:33.311Z,9.48
2019-04-22T03:15:29.963Z,9.55
2019-04-22T03:17:58.475Z,9.64
2019-04-22T03:20:24.760Z,9.75
2019-04-22T03:23:16.531Z,9.64
2019-04-22T03:26:01.289Z,9.72
2019-04-22T03:28:23.695Z,9.54
2019-04-22T03:42:11.619Z,9.37
2019-04-22T03:45:06.273Z,9.39
2019-04-22T03:50:15.697Z,9.23
2019-04-22T03:52:36.963Z,9.25
2019-04-22T03:55:43.294Z,9.20
2019-04-22T04:03:07.485Z,9.06
2019-04-22T04:05:57.650Z,9.02
2019-04-22T04:08:26.348Z,9.02
2019-04-22T04:10:52.707Z,8.92
2019-04-22T04:13:35.935Z,8.84
2019-04-22T04:16:04.672Z,8.90
2019-04-22T04:18:56.169Z,8.94
2019-04-22T04:26:45.610Z,8.97
2019-04-22T04:29:35.630Z,9.01
2019-04-22T04:34:49.344Z,8.84
2019-04-22T04:37:14.968Z,8.92
2019-04-22T04:39:38.590Z,8.86
2019-04-22T04:47:37.225Z,10.63
2019-04-22T04:49:57.422Z,10.93
2019-04-22T04:53:02.179Z,11.57
2019-04-22T04:57:57.709Z,12.81
2019-04-22T05:00:40.133Z,13.20
2019-04-22T05:03:00.625Z,13.82
2019-04-22T05:05:37.261Z,14.53
2019-04-22T05:08:13.832Z,15.16
2019-04-22T05:13:23.444Z,16.28
2019-04-22T05:16:10.869Z,16.66
2019-04-22T05:21:16.421Z,17.35
2019-04-22T05:23:44.572Z,16.56
2019-04-22T05:29:02.641Z,17.91
2019-04-22T05:31:37.566Z,17.63
2019-04-22T05:34:08.195Z,17.83
2019-04-22T05:39:16.779Z,18.36
2019-04-22T05:42:03.116Z,18.71
2019-04-22T05:44:37.270Z,18.39
2019-04-22T05:47:08.344Z,18.62
2019-04-22T05:49:41.537Z,18.59
2019-04-22T05:52:21.183Z,18.92
2019-04-22T05:55:02.514Z,18.85
2019-04-22T05:57:32.747Z,19.46
2019-04-22T06:00:13.874Z,19.83
2019-04-22T06:05:31.905Z,19.95
2019-04-22T06:08:03.649Z,20.11
2019-04-22T06:10:46.611Z,17.59
2019-04-22T06:13:13.942Z,18.44
2019-04-22T06:15:53.044Z,17.99
2019-04-22T06:18:27.251Z,18.66
2019-04-22T06:21:05.226Z,18.88
2019-04-22T06:23:46.456Z,19.15
2019-04-22T06:36:57.009Z,17.95
2019-04-22T06:39:30.835Z,18.04
2019-04-22T06:42:01.022Z,18.19
2019-04-22T06:44:36.562Z,18.69
2019-04-22T06:47:21.029Z,18.97
2019-04-22T06:49:49.270Z,19.47
2019-04-22T06:54:59.563Z,19.90
2019-04-22T06:57:39.391Z,20.29
2019-04-22T07:00:14.311Z,19.95
2019-04-22T07:03:13.762Z,21.04
2019-04-22T07:05:25.260Z,20.30
2019-04-22T07:08:04.366Z,20.94
2019-04-22T07:13:11.643Z,21.41
2019-04-22T07:15:50.771Z,22.81
2019-04-22T07:21:04.268Z,21.98
2019-04-22T07:23:43.336Z,20.82
2019-04-22T07:26:11.863Z,20.85
2019-04-22T07:28:51.988Z,21.20
2019-04-22T07:31:24.860Z,21.64
2019-04-22T07:34:08.079Z,22.23
2019-04-22T07:39:18.373Z,21.16
2019-04-22T07:41:53.656Z,21.69
2019-04-22T07:44:44.944Z,20.51
2019-04-22T07:52:17.564Z,21.25
2019-04-22T07:54:52.421Z,21.56
2019-04-22T08:00:10.965Z,21.78
2019-04-22T08:02:44.987Z,21.40
2019-04-22T08:05:20.674Z,21.03
2019-04-22T08:08:05.478Z,21.46
2019-04-22T08:13:11.723Z,21.81
2019-04-22T08:15:47.716Z,21.62
2019-04-22T08:18:22.379Z,21.57
2019-04-22T08:20:58.356Z,21.41
2019-04-22T08:23:35.471Z,20.77
2019-04-22T08:26:06.057Z,20.61
2019-04-22T08:28:45.926Z,20.87
2019-04-22T08:31:20.299Z,21.12
2019-04-22T08:33:54.590Z,21.28
2019-04-22T08:36:32.346Z,21.38
2019-04-22T08:39:21.732Z,20.63
2019-04-22T08:41:41.577Z,20.93
2019-04-22T08:44:38.985Z,20.64
2019-04-22T08:47:11.178Z,20.77
2019-04-22T08:49:45.507Z,21.26
2019-04-22T08:52:17.837Z,21.12
2019-04-22T08:54:53.672Z,21.35
2019-04-22T08:57:34.827Z,20.24
2019-04-22T09:00:02.475Z,20.17
2019-04-22T09:02:41.294Z,20.24
2019-04-22T09:05:22.524Z,20.46
2019-04-22T09:07:52.129Z,20.74
2019-04-22T09:10:36.255Z,20.39
2019-04-22T09:15:48.812Z,20.52
2019-04-22T09:18:14.792Z,20.60
2019-04-22T09:20:57.332Z,19.84
2019-04-22T09:23:30.329Z,20.08
2019-04-22T09:26:09.178Z,20.65
2019-04-22T09:28:44.681Z,20.78
2019-04-22T09:31:22.459Z,20.12
2019-04-22T09:33:47.664Z,20.21
2019-04-22T09:39:12.698Z,20.26
2019-04-22T09:41:51.447Z,20.46
2019-04-22T09:44:25.652Z,20.71
2019-04-22T09:47:00.021Z,20.79
2019-04-22T09:49:44.552Z,20.75
2019-04-22T09:52:10.494Z,20.44
2019-04-22T09:54:57.015Z,20.51
2019-04-22T09:57:21.207Z,20.90
2019-04-22T10:00:02.400Z,21.12
2019-04-22T10:05:15.101Z,20.39
2019-04-22T10:07:49.144Z,20.71
2019-04-22T10:10:18.881Z,20.63
2019-04-22T10:12:57.497Z,20.51
2019-04-22T10:15:33.766Z,20.43
2019-04-22T10:18:19.636Z,21.02
2019-04-22T10:20:51.847Z,20.54
2019-04-22T10:23:24.805Z,20.63
2019-04-22T10:26:05.297Z,20.83
2019-04-22T10:28:40.126Z,20.83
2019-04-22T10:31:21.913Z,20.91
2019-04-22T10:33:42.173Z,20.64
2019-04-22T10:36:03.525Z,21.04
2019-04-22T10:38:37.588Z,21.39
2019-04-22T10:41:14.591Z,21.20
2019-04-22T10:43:51.014Z,21.53
2019-04-22T10:46:26.397Z,21.58
2019-04-22T10:49:01.950Z,21.49
2019-04-22T10:51:36.913Z,21.59
2019-04-22T10:54:11.466Z,21.56
2019-04-22T10:56:45.330Z,21.42
2019-04-22T10:59:20.492Z,21.57
2019-04-22T11:01:54.975Z,21.63
2019-04-22T11:04:30.202Z,21.43
2019-04-22T11:07:07.627Z,21.39
2019-04-22T11:09:53.095Z,21.74
2019-04-22T11:12:21.459Z,21.85
2019-04-22T11:14:53.943Z,21.95
2019-04-22T11:17:29.267Z,21.77
2019-04-22T11:20:07.950Z,21.87
2019-04-22T11:22:44.539Z,21.33
2019-04-22T11:25:18.375Z,21.67
2019-04-22T11:27:55.860Z,21.88
2019-04-22T11:30:31.951Z,21.64
2019-04-22T11:33:06.840Z,21.68
2019-04-22T11:35:41.795Z,21.88
2019-04-22T11:38:17.067Z,22.41
2019-04-22T11:40:54.063Z,22.10
2019-04-22T11:43:26.573Z,22.15
2019-04-22T11:46:03.257Z,21.56
2019-04-22T11:48:38.116Z,22.11
2019-04-22T11:51:14.007Z,22.05
2019-04-22T11:53:49.021Z,21.79
2019-04-22T11:56:23.058Z,21.77
2019-04-22T11:58:57.814Z,21.85
2019-04-22T12:01:40.937Z,21.97
2019-04-22T12:04:17.995Z,21.73
2019-04-22T12:06:53.814Z,21.90
2019-04-22T12:09:29.811Z,22.02
2019-04-22T12:12:05.730Z,21.61
2019-04-22T12:14:40.548Z,21.95
2019-04-22T12:17:15.964Z,21.60
2019-04-22T12:19:52.711Z,21.47
2019-04-22T12:22:26.959Z,21.70
2019-04-22T12:25:01.485Z,21.88
2019-04-22T12:27:38.937Z,21.56
2019-04-22T12:30:14.776Z,21.68
2019-04-22T12:32:50.520Z,21.70
2019-04-22T12:35:26.581Z,21.80
2019-04-22T12:38:06.111Z,21.94
2019-04-22T12:40:44.745Z,22.00
2019-04-22T12:43:12.856Z,22.25
2019-04-22T12:45:47.977Z,22.22
2019-04-22T12:48:23.223Z,22.14
2019-04-22T12:50:58.524Z,21.73
2019-04-22T12:53:33.923Z,22.36
2019-04-22T12:56:09.093Z,22.52
2019-04-22T12:58:43.632Z,21.98
2019-04-22T13:01:19.087Z,21.99
2019-04-22T13:03:57.640Z,21.94
2019-04-22T13:06:32.056Z,22.54
2019-04-22T13:09:08.676Z,22.62
2019-04-22T13:11:44.169Z,22.23
2019-04-22T13:14:21.280Z,22.37
2019-04-22T13:16:55.175Z,22.60
2019-04-22T13:19:32.055Z,22.19
2019-04-22T13:22:09.292Z,22.20
2019-04-22T13:24:45.937Z,22.03
2019-04-22T13:27:21.484Z,21.99
2019-04-22T13:29:57.169Z,22.34
2019-04-22T13:32:31.375Z,22.24
2019-04-22T13:35:07.042Z,22.66
2019-04-22T13:37:41.119Z,22.47
2019-04-22T13:40:19.044Z,22.22
2019-04-22T13:42:55.622Z,22.46
2019-04-22T13:45:29.835Z,22.04
2019-04-22T13:48:22.058Z,21.91
2019-04-22T13:56:13.667Z,21.88
2019-04-22T13:58:44.814Z,21.52
2019-04-22T14:01:12.553Z,21.56
2019-04-22T14:04:04.786Z,21.83
2019-04-22T14:06:38.886Z,22.15
2019-04-22T14:09:16.691Z,21.55
2019-04-22T14:11:55.864Z,21.66
2019-04-22T14:14:26.519Z,21.93
2019-04-22T14:17:00.979Z,21.93
2019-04-22T14:19:36.286Z,21.70
2019-04-22T14:22:11.629Z,21.72
2019-04-22T14:24:46.759Z,21.83
2019-04-22T14:27:31.761Z,22.00
2019-04-22T14:29:57.706Z,21.52
2019-04-22T14:32:32.359Z,21.60
2019-04-22T14:35:09.320Z,21.55
2019-04-22T14:37:43.448Z,21.48
2019-04-22T14:40:22.049Z,21.39
2019-04-22T14:43:13.208Z,21.73
2019-04-22T14:46:04.298Z,21.55
2019-04-22T14:48:37.363Z,21.89
2019-04-22T14:51:00.633Z,21.43
2019-04-22T14:53:35.548Z,21.42
2019-04-22T14:55:52.757Z,21.07
2019-04-22T14:58:28.826Z,20.79
2019-04-22T15:01:03.298Z,21.17
2019-04-22T15:03:42.003Z,21.27
2019-04-22T15:06:20.056Z,21.18
2019-04-22T15:08:59.006Z,21.08
2019-04-22T15:11:48.642Z,20.91
2019-04-22T15:14:09.675Z,21.08
2019-04-22T15:17:08.979Z,20.96
2019-04-22T15:19:58.054Z,20.95
2019-04-22T15:22:32.701Z,20.99
2019-04-22T15:25:08.427Z,20.80
2019-04-22T15:27:43.225Z,20.87
2019-04-22T15:30:19.296Z,20.69
2019-04-22T15:32:53.702Z,20.77
2019-04-22T15:35:27.533Z,20.58
2019-04-22T15:38:01.507Z,20.48
2019-04-22T15:40:36.565Z,20.10
2019-04-22T15:43:10.980Z,20.45
2019-04-22T15:45:46.596Z,20.46
2019-04-22T15:48:21.190Z,20.54
2019-04-22T15:50:55.102Z,20.72
2019-04-22T15:53:29.626Z,20.37
2019-04-22T15:56:04.960Z,20.22
2019-04-22T15:58:39.649Z,20.33
2019-04-22T16:01:22.259Z,20.31
2019-04-22T16:03:50.430Z,20.45
2019-04-22T16:06:26.156Z,20.07
2019-04-22T16:09:02.702Z,20.15
2019-04-22T16:11:38.061Z,20.35
2019-04-22T16:14:15.109Z,20.40
2019-04-22T16:16:48.372Z,20.11
2019-04-22T16:19:23.273Z,20.00
2019-04-22T16:22:05.008Z,20.12
2019-04-22T16:24:52.455Z,19.95
2019-04-22T16:27:30.071Z,19.89
2019-04-22T16:30:07.516Z,20.06
2019-04-22T16:32:43.345Z,19.94
2019-04-22T16:35:18.689Z,19.82
2019-04-22T16:37:52.683Z,19.83
2019-04-22T16:40:30.564Z,19.75
2019-04-22T16:43:07.770Z,19.62
2019-04-22T16:45:41.075Z,19.53
2019-04-22T16:48:15.991Z,19.57
2019-04-22T16:50:52.212Z,19.59
2019-04-22T16:53:25.536Z,19.52
2019-04-22T16:56:00.473Z,19.37
2019-04-22T16:58:34.724Z,19.27
2019-04-22T17:01:25.309Z,19.37
2019-04-22T17:04:07.010Z,19.34
2019-04-22T17:06:43.602Z,19.29
2019-04-22T17:09:19.689Z,19.19
2019-04-22T17:11:56.013Z,19.18
2019-04-22T17:14:36.003Z,19.20
2019-04-22T17:17:08.397Z,19.09
2019-04-22T17:19:42.539Z,19.10
2019-04-22T17:22:19.604Z,18.98
2019-04-22T17:24:55.779Z,18.89
2019-04-22T17:27:34.458Z,18.76
2019-04-22T17:30:10.555Z,18.65
2019-04-22T17:32:48.398Z,18.66
2019-04-22T17:35:26.224Z,18.59
2019-04-22T17:38:14.292Z,18.54
2019-04-22T17:40:52.282Z,18.31
2019-04-22T17:43:41.314Z,18.23
2019-04-22T17:46:32.281Z,18.18
2019-04-22T17:49:34.032Z,18.02
2019-04-22T17:52:21.111Z,17.92
2019-04-22T17:54:51.663Z,17.83
2019-04-22T17:57:27.870Z,17.97
2019-04-22T18:00:07.052Z,17.78
2019-04-22T18:02:42.147Z,17.77
2019-04-22T18:05:04.211Z,17.59
2019-04-22T18:07:54.863Z,17.55
2019-04-22T18:10:35.688Z,17.48
2019-04-22T18:13:20.431Z,17.53
2019-04-22T18:16:08.162Z,17.43
2019-04-22T18:18:49.703Z,17.35
2019-04-22T18:21:18.986Z,17.26
2019-04-22T18:23:50.190Z,17.26
2019-04-22T18:26:32.099Z,17.12
2019-04-22T18:29:12.920Z,17.11
2019-04-22T18:31:38.580Z,16.96
2019-04-22T18:34:15.611Z,16.92
2019-04-22T18:36:55.299Z,16.74
2019-04-22T18:39:42.370Z,16.77
2019-04-22T18:42:09.329Z,16.69
2019-04-22T18:44:55.351Z,16.74
2019-04-22T18:47:27.643Z,16.59
2019-04-22T18:50:02.806Z,16.58
2019-04-22T18:52:48.744Z,16.40
2019-04-22T18:55:33.817Z,16.30
2019-04-22T18:58:16.628Z,16.05
2019-04-22T19:00:41.842Z,16.00
2019-04-22T19:03:25.323Z,15.82
2019-04-22T19:06:32.213Z,15.72
2019-04-22T19:08:55.578Z,15.70
2019-04-22T19:11:26.981Z,15.51
2019-04-22T19:14:07.477Z,15.56
2019-04-22T19:16:39.716Z,15.37
2019-04-22T19:19:29.746Z,15.36
2019-04-22T19:21:51.392Z,15.34
2019-04-22T19:24:24.227Z,15.08
2019-04-22T19:27:23.649Z,15.08
2019-04-22T19:29:45.169Z,15.12
2019-04-22T19:32:21.408Z,15.05
2019-04-22T19:34:54.153Z,14.96
2019-04-22T19:37:27.101Z,14.90
2019-04-22T19:40:17.588Z,14.76
2019-04-22T19:42:53.018Z,14.69
2019-04-22T19:45:15.753Z,14.59
2019-04-22T19:48:03.619Z,14.57
2019-04-22T19:50:34.601Z,14.62
2019-04-22T19:53:10.561Z,14.55
2019-04-22T19:55:48.214Z,14.41
2019-04-22T19:58:20.136Z,14.40
2019-04-22T20:01:16.389Z,14.39
2019-04-22T20:04:22.994Z,14.30
2019-04-22T20:07:14.174Z,14.26
2019-04-22T20:09:55.645Z,14.24
2019-04-22T20:12:23.494Z,14.14
2019-04-22T20:15:00.225Z,14.07
2019-04-22T20:20:16.159Z,14.01
2019-04-22T20:22:44.822Z,14.05
2019-04-22T20:25:13.470Z,13.94
2019-04-22T20:28:05.914Z,13.88
2019-04-22T20:30:44.491Z,13.79
2019-04-22T20:33:08.712Z,13.79
2019-04-22T20:35:52.042Z,13.81
2019-04-22T20:38:28.023Z,13.68
2019-04-22T20:41:01.439Z,13.58
2019-04-22T20:43:46.751Z,13.67
2019-04-22T20:46:19.068Z,13.60
2019-04-22T20:48:54.826Z,13.66
2019-04-22T20:51:38.993Z,13.60
2019-04-22T20:54:10.340Z,13.48
2019-04-22T20:56:33.693Z,13.52
2019-04-22T20:59:12.636Z,13.54
2019-04-22T21:01:48.936Z,13.53
2019-04-22T21:04:19.645Z,13.52
2019-04-22T21:07:02.226Z,13.46
2019-04-22T21:09:38.196Z,13.52
2019-04-22T21:12:12.469Z,13.42
2019-04-22T21:14:54.927Z,13.43
2019-04-22T21:17:25.039Z,13.42
2019-04-22T21:20:09.987Z,13.43
2019-04-22T21:22:38.922Z,13.36
2019-04-22T21:25:09.889Z,13.30
2019-04-22T21:27:57.985Z,13.27
2019-04-22T21:30:32.001Z,13.31
2019-04-22T21:33:04.158Z,13.19
2019-04-22T21:35:55.000Z,13.17
2019-04-22T21:38:21.606Z,13.16
2019-04-22T21:40:56.383Z,13.16
2019-04-22T21:43:28.819Z,13.16
2019-04-22T21:46:10.483Z,13.15
2019-04-22T21:48:49.379Z,12.93
2019-04-22T21:51:25.633Z,13.04
2019-04-22T21:54:06.856Z,12.90
2019-04-22T21:56:42.356Z,12.81
2019-04-22T21:59:12.464Z,12.92
2019-04-22T22:01:52.774Z,12.83
2019-04-22T22:04:25.140Z,12.88
2019-04-22T22:06:54.572Z,12.78
2019-04-22T22:09:39.142Z,12.67
2019-04-22T22:12:16.486Z,12.79
2019-04-22T22:14:50.058Z,12.83
2019-04-22T22:17:25.259Z,12.77
2019-04-22T22:19:57.902Z,12.65
2019-04-22T22:22:45.412Z,12.51
2019-04-22T22:25:14.306Z,12.46
2019-04-22T22:27:44.826Z,12.38
2019-04-22T22:33:01.606Z,12.33
2019-04-22T22:35:36.149Z,12.36
2019-04-22T22:38:10.866Z,12.41
2019-04-22T22:40:28.586Z,12.17
2019-04-22T22:43:11.672Z,12.17
2019-04-22T22:45:45.000Z,12.20
2019-04-22T22:48:36.798Z,12.20
2019-04-22T22:51:09.656Z,12.20
2019-04-22T22:53:44.655Z,12.13
2019-04-22T22:56:34.966Z,12.19
2019-04-22T22:58:58.744Z,12.06
2019-04-22T23:01:36.086Z,12.03
2019-04-22T23:04:09.249Z,11.95
2019-04-22T23:06:44.397Z,12.00
2019-04-22T23:09:19.254Z,11.91
2019-04-22T23:12:03.290Z,11.74
2019-04-22T23:14:37.079Z,11.83
2019-04-22T23:16:59.213Z,11.91
2019-04-22T23:19:26.069Z,11.84
2019-04-22T23:22:06.325Z,11.65
2019-04-22T23:24:55.593Z,11.70
2019-04-22T23:27:51.459Z,11.76
2019-04-22T23:30:52.840Z,11.67
2019-04-22T23:33:43.844Z,11.67
2019-04-22T23:36:50.819Z,11.57
2019-04-22T23:39:41.676Z,11.70
2019-04-22T23:42:13.455Z,11.48
2019-04-22T23:44:50.329Z,11.46
2019-04-22T23:47:43.464Z,11.38
2019-04-22T23:50:34.044Z,11.49
2019-04-22T23:53:08.654Z,11.46
2019-04-22T23:55:43.602Z,11.55
2019-04-22T23:58:34.963Z,11.55
